Time;durP1;ratioP1;P1;durP2;ratioP2;P2;SDS_P1;SDS_P2;PMS_P1;PMS_P2;Temp;Humidity;BMP_temperature;BMP_pressure;BME280_temperature;BME280_humidity;BME280_pressure;Samples;Min_cycle;Max_cycle;Signal;HPM_P1;HPM_P2
2021/08/21 00:00:01;;;;;;;41.95;29.73;;;;;;;;;;5010550;28;20375;-69
2021/08/21 00:02:28;;;;;;;43.72;30.80;;;;;;;;;;5011971;28;20037;-70
2021/08/21 00:04:55;;;;;;;38.90;29.50;;;;;;;;;;4991923;28;20050;-70
2021/08/21 00:07:22;;;;;;;45.40;33.67;;;;;;;;;;4978066;28;20091;-70
2021/08/21 00:09:50;;;;;;;45.35;31.65;;;;;;;;;;5011354;28;20050;-70
2021/08/21 00:12:17;;;;;;;39.00;30.38;;;;;;;;;;4993145;28;20470;-69
2021/08/21 00:14:44;;;;;;;36.75;25.73;;;;;;;;;;5008844;28;20083;-70
2021/08/21 00:17:11;;;;;;;33.10;21.63;;;;;;;;;;5008644;28;20042;-70
2021/08/21 00:19:38;;;;;;;29.75;23.20;;;;;;;;;;5007931;28;20063;-70
2021/08/21 00:22:06;;;;;;;32.95;22.60;;;;;;;;;;5006711;28;20112;-70
2021/08/21 00:24:33;;;;;;;28.48;22.25;;;;;;;;;;5004543;28;20026;-69
2021/08/21 00:27:00;;;;;;;29.67;22.73;;;;;;;;;;5005546;28;20026;-69
2021/08/21 00:29:27;;;;;;;26.08;19.55;;;;;;;;;;5003792;28;20054;-70
2021/08/21 00:31:55;;;;;;;25.95;19.17;;;;;;;;;;5006144;28;20057;-69
2021/08/21 00:34:22;;;;;;;24.63;16.63;;;;;;;;;;4988618;28;20041;-69
2021/08/21 00:36:49;;;;;;;24.30;16.25;;;;;;;;;;4990510;28;20033;-69
2021/08/21 00:39:16;;;;;;;19.92;15.85;;;;;;;;;;5005561;28;20042;-69
2021/08/21 00:41:44;;;;;;;18.85;16.05;;;;;;;;;;5006351;28;20026;-69
2021/08/21 00:44:12;;;;;;;23.08;16.90;;;;;;;;;;5007553;28;20033;-69
2021/08/21 00:46:57;;;;;;;24.90;15.82;;;;;;;;;;5007562;28;20203;-69
2021/08/21 00:49:24;;;;;;;22.00;16.73;;;;;;;;;;5007346;28;20046;-69
2021/08/21 00:51:51;;;;;;;19.98;16.05;;;;;;;;;;5008108;28;20041;-70
2021/08/21 00:54:18;;;;;;;20.20;15.10;;;;;;;;;;5006883;28;20042;-70
2021/08/21 00:56:45;;;;;;;19.52;15.70;;;;;;;;;;5009830;28;20035;-70
2021/08/21 00:59:13;;;;;;;21.85;15.77;;;;;;;;;;5005356;28;20034;-70
2021/08/21 01:01:40;;;;;;;21.85;14.30;;;;;;;;;;5009435;28;20084;-70
2021/08/21 01:04:07;;;;;;;18.20;13.68;;;;;;;;;;5011312;28;20041;-69
2021/08/21 01:06:34;;;;;;;24.40;17.80;;;;;;;;;;5016090;28;20321;-70
2021/08/21 01:09:02;;;;;;;22.35;17.27;;;;;;;;;;5012756;28;20053;-68
2021/08/21 01:11:30;;;;;;;25.20;17.55;;;;;;;;;;5011855;28;20104;-70
2021/08/21 01:13:58;;;;;;;22.48;14.88;;;;;;;;;;5006786;28;20517;-69
2021/08/21 01:16:25;;;;;;;19.27;14.38;;;;;;;;;;5012250;28;20042;-69
2021/08/21 01:18:52;;;;;;;20.27;14.15;;;;;;;;;;5011898;28;20030;-69
2021/08/21 01:21:19;;;;;;;14.68;9.68;;;;;;;;;;5012621;28;20040;-69
2021/08/21 01:23:46;;;;;;;13.32;8.15;;;;;;;;;;5012986;28;20542;-69
2021/08/21 01:26:13;;;;;;;11.27;8.48;;;;;;;;;;4996523;28;20388;-70
2021/08/21 01:28:41;;;;;;;15.15;8.27;;;;;;;;;;5011847;28;20034;-69
2021/08/21 01:31:08;;;;;;;12.98;8.75;;;;;;;;;;5012492;28;20057;-68
2021/08/21 01:33:39;;;;;;;10.13;7.15;;;;;;;;;;5023425;28;20128;-69
2021/08/21 01:36:06;;;;;;;9.13;6.68;;;;;;;;;;5013923;28;20129;-70
2021/08/21 01:38:33;;;;;;;9.85;6.00;;;;;;;;;;5026664;28;20034;-70
2021/08/21 01:41:01;;;;;;;7.30;5.15;;;;;;;;;;5022657;28;20102;-69
2021/08/21 01:43:28;;;;;;;8.23;6.03;;;;;;;;;;5020599;28;20029;-69
2021/08/21 01:45:55;;;;;;;11.30;6.03;;;;;;;;;;5018445;28;20053;-70
2021/08/21 01:48:22;;;;;;;9.32;6.25;;;;;;;;;;5015684;28;20053;-70
2021/08/21 01:50:49;;;;;;;10.15;5.63;;;;;;;;;;4993084;28;20422;-70
2021/08/21 01:53:19;;;;;;;11.45;6.93;;;;;;;;;;5007166;28;20112;-69
2021/08/21 01:55:47;;;;;;;13.90;7.28;;;;;;;;;;5006784;28;20037;-69
2021/08/21 01:58:21;;;;;;;10.80;6.70;;;;;;;;;;5009177;28;20634;-71
2021/08/21 02:00:49;;;;;;;10.52;5.78;;;;;;;;;;5009307;28;20030;-70
2021/08/21 02:03:18;;;;;;;9.05;5.40;;;;;;;;;;5009882;28;20034;-70
2021/08/21 02:05:45;;;;;;;7.13;5.32;;;;;;;;;;5000364;28;20355;-69
2021/08/21 02:08:12;;;;;;;7.57;5.78;;;;;;;;;;5010135;28;20038;-70
2021/08/21 02:10:39;;;;;;;7.60;3.20;;;;;;;;;;4989693;28;20062;-70
2021/08/21 02:13:06;;;;;;;6.28;2.97;;;;;;;;;;5010652;28;20026;-69
2021/08/21 02:15:34;;;;;;;3.30;2.28;;;;;;;;;;5013229;28;20502;-69
2021/08/21 02:18:01;;;;;;;5.43;3.47;;;;;;;;;;5010115;28;20045;-68
2021/08/21 02:20:28;;;;;;;6.85;3.92;;;;;;;;;;5008118;28;20037;-69
2021/08/21 02:22:55;;;;;;;5.85;2.40;;;;;;;;;;5011047;28;20033;-69
2021/08/21 02:25:22;;;;;;;6.65;2.67;;;;;;;;;;5011687;28;20096;-69
2021/08/21 02:27:57;;;;;;;5.18;3.03;;;;;;;;;;5009016;28;20041;-68
2021/08/21 02:30:24;;;;;;;3.00;2.10;;;;;;;;;;5012950;28;20160;-69
2021/08/21 02:32:51;;;;;;;4.38;2.95;;;;;;;;;;5023127;28;20057;-70
2021/08/21 02:35:19;;;;;;;5.10;4.22;;;;;;;;;;5031652;28;20041;-70
2021/08/21 02:37:46;;;;;;;6.20;4.65;;;;;;;;;;5025959;28;20037;-68
2021/08/21 02:40:13;;;;;;;7.75;4.70;;;;;;;;;;5031802;28;20034;-69
2021/08/21 02:42:40;;;;;;;4.80;3.60;;;;;;;;;;5030172;28;20040;-68
2021/08/21 02:45:08;;;;;;;4.78;2.72;;;;;;;;;;5031907;28;20037;-68
2021/08/21 02:47:35;;;;;;;5.00;2.90;;;;;;;;;;5030280;28;20061;-68
2021/08/21 02:50:02;;;;;;;3.45;2.70;;;;;;;;;;5013026;28;20511;-68
2021/08/21 02:52:29;;;;;;;6.82;4.03;;;;;;;;;;5030468;28;20029;-69
2021/08/21 02:54:56;;;;;;;9.38;5.55;;;;;;;;;;5030908;28;20030;-69
2021/08/21 02:57:23;;;;;;;11.90;7.38;;;;;;;;;;5031428;28;20033;-69
2021/08/21 02:59:51;;;;;;;9.77;7.97;;;;;;;;;;5031244;28;20128;-68
2021/08/21 03:02:18;;;;;;;24.15;18.23;;;;;;;;;;5032306;28;20107;-69
2021/08/21 03:04:45;;;;;;;19.42;17.08;;;;;;;;;;5030527;28;20031;-69
2021/08/21 03:07:12;;;;;;;25.45;21.60;;;;;;;;;;5031400;28;20026;-68
2021/08/21 03:09:39;;;;;;;23.17;20.63;;;;;;;;;;5029865;28;20046;-68
2021/08/21 03:12:06;;;;;;;23.05;18.10;;;;;;;;;;5021585;28;20083;-69
2021/08/21 03:14:33;;;;;;;29.00;22.73;;;;;;;;;;5026979;28;20046;-68
2021/08/21 03:17:01;;;;;;;37.90;32.28;;;;;;;;;;5030018;28;20026;-68
2021/08/21 03:19:28;;;;;;;43.92;39.00;;;;;;;;;;5023651;28;20029;-68
2021/08/21 03:21:55;;;;;;;38.50;33.97;;;;;;;;;;5028122;28;20466;-70
2021/08/21 03:24:22;;;;;;;42.50;35.25;;;;;;;;;;5029425;28;20116;-69
2021/08/21 03:26:49;;;;;;;41.25;35.22;;;;;;;;;;5030171;28;20437;-69
2021/08/21 03:29:16;;;;;;;39.70;34.85;;;;;;;;;;5028951;28;20126;-68
2021/08/21 03:31:43;;;;;;;45.72;40.05;;;;;;;;;;5028966;28;20100;-69
2021/08/21 03:34:10;;;;;;;49.10;41.60;;;;;;;;;;5028666;28;20449;-68
2021/08/21 03:36:37;;;;;;;51.28;41.40;;;;;;;;;;5029724;28;20025;-69
2021/08/21 03:39:04;;;;;;;52.72;46.97;;;;;;;;;;5027900;28;20044;-69
2021/08/21 03:41:32;;;;;;;52.20;46.40;;;;;;;;;;5028391;28;20030;-69
2021/08/21 03:43:59;;;;;;;68.07;57.65;;;;;;;;;;5027411;28;20033;-69
2021/08/21 03:46:26;;;;;;;61.45;54.55;;;;;;;;;;5029264;28;20033;-69
2021/08/21 03:48:53;;;;;;;59.03;52.58;;;;;;;;;;5028306;28;20606;-70
2021/08/21 03:51:20;;;;;;;56.95;49.95;;;;;;;;;;5030499;28;20033;-69
2021/08/21 03:53:47;;;;;;;61.80;55.00;;;;;;;;;;5028314;28;20029;-69
2021/08/21 03:56:14;;;;;;;63.42;53.53;;;;;;;;;;5030605;28;20372;-69
2021/08/21 03:58:41;;;;;;;59.90;53.40;;;;;;;;;;5030456;28;20030;-69
2021/08/21 04:01:08;;;;;;;62.22;51.33;;;;;;;;;;5031352;28;20410;-69
2021/08/21 04:03:36;;;;;;;52.13;46.10;;;;;;;;;;5027500;28;20213;-68
2021/08/21 04:06:04;;;;;;;50.85;43.45;;;;;;;;;;5030362;28;20398;-68
2021/08/21 04:08:31;;;;;;;46.15;38.00;;;;;;;;;;5010483;28;20438;-67
2021/08/21 04:10:58;;;;;;;48.78;39.40;;;;;;;;;;5029946;28;20090;-67
2021/08/21 04:13:27;;;;;;;54.88;44.38;;;;;;;;;;5025901;28;20037;-68
2021/08/21 04:15:55;;;;;;;51.63;43.17;;;;;;;;;;5029878;28;20548;-68
2021/08/21 04:18:22;;;;;;;49.83;41.05;;;;;;;;;;5028301;28;20029;-68
2021/08/21 04:20:49;;;;;;;53.65;44.08;;;;;;;;;;5028431;28;20037;-68
2021/08/21 04:23:16;;;;;;;56.25;45.67;;;;;;;;;;5030533;28;20037;-68
2021/08/21 04:25:43;;;;;;;48.22;42.45;;;;;;;;;;5031796;28;20092;-69
2021/08/21 04:28:10;;;;;;;44.92;38.85;;;;;;;;;;5029824;28;20041;-69
2021/08/21 04:30:37;;;;;;;45.00;39.40;;;;;;;;;;5032037;28;20036;-69
2021/08/21 04:33:04;;;;;;;51.20;40.55;;;;;;;;;;5025949;28;20092;-70
2021/08/21 04:35:32;;;;;;;43.30;37.95;;;;;;;;;;5014106;28;20038;-69
2021/08/21 04:38:01;;;;;;;38.90;32.72;;;;;;;;;;5030352;28;20049;-69
2021/08/21 04:40:29;;;;;;;31.30;26.83;;;;;;;;;;5032084;28;20038;-68
2021/08/21 04:42:57;;;;;;;31.08;26.60;;;;;;;;;;5030411;28;20083;-69
2021/08/21 04:45:24;;;;;;;42.55;36.63;;;;;;;;;;5031638;28;20026;-70
2021/08/21 04:47:51;;;;;;;41.58;34.28;;;;;;;;;;5029790;28;20052;-69
2021/08/21 04:50:18;;;;;;;31.17;26.77;;;;;;;;;;5031132;28;20048;-69
2021/08/21 04:52:45;;;;;;;7.55;6.22;;;;;;;;;;5023090;28;20498;-69
2021/08/21 04:55:12;;;;;;;5.47;3.88;;;;;;;;;;5029626;28;20049;-68
2021/08/21 04:57:39;;;;;;;7.75;5.20;;;;;;;;;;5029300;28;20501;-68
2021/08/21 05:00:07;;;;;;;8.18;5.35;;;;;;;;;;5031482;28;20517;-68
2021/08/21 05:02:34;;;;;;;8.15;5.63;;;;;;;;;;5012342;28;20517;-69
2021/08/21 05:05:01;;;;;;;7.50;5.40;;;;;;;;;;4994303;28;20049;-68
2021/08/21 05:07:28;;;;;;;7.38;5.68;;;;;;;;;;5013631;28;20029;-68
2021/08/21 05:09:55;;;;;;;10.00;5.93;;;;;;;;;;5031137;28;20133;-68
2021/08/21 05:12:22;;;;;;;7.55;6.45;;;;;;;;;;5027960;28;20061;-68
2021/08/21 05:14:50;;;;;;;11.73;7.22;;;;;;;;;;5025437;28;20045;-69
2021/08/21 05:17:17;;;;;;;9.73;7.90;;;;;;;;;;5028685;28;20026;-69
2021/08/21 05:19:52;;;;;;;13.57;8.52;;;;;;;;;;5028178;28;20029;-68
2021/08/21 05:24:49;;;;;;;14.57;9.50;;;;;;;;;;5027792;28;20557;-69
2021/08/21 05:27:20;;;;;;;13.98;9.52;;;;;;;;;;5026239;28;20577;-69
2021/08/21 05:29:47;;;;;;;14.77;10.75;;;;;;;;;;5024383;28;20042;-70
2021/08/21 05:32:15;;;;;;;13.15;10.57;;;;;;;;;;5018172;28;20053;-69
2021/08/21 05:34:42;;;;;;;14.15;10.93;;;;;;;;;;4989336;28;20045;-70
2021/08/21 05:37:09;;;;;;;15.38;11.43;;;;;;;;;;5006446;28;20037;-69
2021/08/21 05:39:36;;;;;;;14.27;11.80;;;;;;;;;;5007127;28;20045;-70
2021/08/21 05:42:03;;;;;;;17.02;11.10;;;;;;;;;;5004790;28;20038;-69
2021/08/21 05:44:31;;;;;;;13.20;11.10;;;;;;;;;;5008268;28;20041;-69
2021/08/21 05:46:58;;;;;;;13.50;11.18;;;;;;;;;;5006025;28;20398;-69
2021/08/21 05:49:25;;;;;;;14.05;11.15;;;;;;;;;;5006452;28;20038;-70
2021/08/21 05:51:52;;;;;;;17.45;12.52;;;;;;;;;;5007472;28;20041;-69
2021/08/21 05:54:19;;;;;;;15.73;10.77;;;;;;;;;;5007305;28;20042;-71
2021/08/21 05:56:46;;;;;;;13.55;11.15;;;;;;;;;;5007114;28;20070;-70
2021/08/21 05:59:13;;;;;;;14.25;12.00;;;;;;;;;;5004814;28;20060;-70
2021/08/21 06:01:40;;;;;;;14.88;11.68;;;;;;;;;;5005651;28;20136;-69
2021/08/21 06:04:08;;;;;;;17.63;11.68;;;;;;;;;;5009246;28;20057;-68
2021/08/21 06:06:35;;;;;;;14.45;11.05;;;;;;;;;;5009413;28;20042;-69
2021/08/21 06:09:03;;;;;;;15.45;11.32;;;;;;;;;;5010534;28;20045;-69
2021/08/21 06:11:31;;;;;;;16.38;11.68;;;;;;;;;;5008074;28;20034;-68
2021/08/21 06:13:58;;;;;;;14.98;10.63;;;;;;;;;;5018510;28;20033;-69
2021/08/21 06:16:26;;;;;;;13.77;11.55;;;;;;;;;;4999422;28;20520;-68
2021/08/21 06:18:53;;;;;;;15.40;11.85;;;;;;;;;;5028877;28;20030;-69
2021/08/21 06:21:20;;;;;;;14.02;11.00;;;;;;;;;;5003501;28;20092;-70
2021/08/21 06:23:47;;;;;;;12.45;10.85;;;;;;;;;;5020036;28;20124;-69
2021/08/21 06:26:14;;;;;;;14.77;11.63;;;;;;;;;;5022792;28;20236;-69
2021/08/21 06:28:41;;;;;;;17.33;11.60;;;;;;;;;;5024298;28;20064;-68
2021/08/21 06:31:09;;;;;;;15.63;11.43;;;;;;;;;;5017975;28;20137;-69
2021/08/21 06:33:36;;;;;;;21.23;11.65;;;;;;;;;;5036127;28;20049;-68
2021/08/21 06:36:04;;;;;;;61.67;14.63;;;;;;;;;;5034296;28;20030;-69
2021/08/21 06:38:31;;;;;;;11.48;9.02;;;;;;;;;;5035311;28;20045;-69
2021/08/21 06:40:58;;;;;;;17.75;9.88;;;;;;;;;;5033977;28;20091;-69
2021/08/21 06:43:25;;;;;;;8.32;6.72;;;;;;;;;;5030775;28;20478;-69
2021/08/21 06:45:52;;;;;;;9.25;7.13;;;;;;;;;;5037121;28;20029;-69
2021/08/21 06:48:19;;;;;;;8.50;5.95;;;;;;;;;;5035753;28;20486;-69
2021/08/21 06:50:46;;;;;;;9.45;6.22;;;;;;;;;;5034011;28;20069;-68
2021/08/21 06:53:15;;;;;;;9.38;6.25;;;;;;;;;;5032094;28;20036;-69
2021/08/21 06:55:42;;;;;;;8.65;5.22;;;;;;;;;;5033736;28;20139;-68
2021/08/21 06:58:09;;;;;;;6.97;4.20;;;;;;;;;;5017287;28;20033;-69
2021/08/21 07:00:37;;;;;;;7.13;4.35;;;;;;;;;;5030645;28;20065;-69
2021/08/21 07:03:05;;;;;;;6.40;4.40;;;;;;;;;;5032219;28;20493;-70
2021/08/21 07:05:32;;;;;;;5.65;3.88;;;;;;;;;;5033120;28;20032;-69
2021/08/21 07:07:59;;;;;;;4.90;2.28;;;;;;;;;;5014815;28;20040;-69
2021/08/21 07:10:26;;;;;;;6.22;2.55;;;;;;;;;;5033416;28;20037;-69
2021/08/21 07:12:53;;;;;;;4.88;2.20;;;;;;;;;;5030384;28;20038;-69
2021/08/21 07:15:20;;;;;;;5.38;1.90;;;;;;;;;;5032422;28;20037;-69
2021/08/21 07:17:47;;;;;;;3.30;1.60;;;;;;;;;;5010577;28;20033;-68
2021/08/21 07:20:14;;;;;;;5.70;1.48;;;;;;;;;;5031455;28;20037;-68
2021/08/21 07:22:42;;;;;;;5.68;2.65;;;;;;;;;;5029635;28;20108;-69
2021/08/21 07:25:12;;;;;;;6.18;2.30;;;;;;;;;;5032744;28;20120;-69
2021/08/21 07:27:39;;;;;;;5.70;2.00;;;;;;;;;;5028751;28;20324;-69
2021/08/21 07:30:07;;;;;;;6.50;1.73;;;;;;;;;;5025154;28;20502;-69
2021/08/21 07:32:34;;;;;;;3.13;1.48;;;;;;;;;;5028823;28;20050;-68
2021/08/21 07:35:03;;;;;;;5.43;1.98;;;;;;;;;;5029554;28;20029;-69
2021/08/21 07:37:31;;;;;;;4.60;1.80;;;;;;;;;;5028242;28;20418;-68
2021/08/21 07:39:58;;;;;;;6.80;2.20;;;;;;;;;;5030099;28;20049;-68
2021/08/21 07:42:25;;;;;;;10.57;2.28;;;;;;;;;;5010867;28;20049;-68
2021/08/21 07:44:52;;;;;;;14.30;2.50;;;;;;;;;;5029265;28;20509;-70
2021/08/21 07:47:19;;;;;;;5.32;1.75;;;;;;;;;;5009718;28;20049;-70
2021/08/21 07:49:46;;;;;;;6.18;2.10;;;;;;;;;;5008652;28;20065;-70
2021/08/21 07:52:13;;;;;;;6.38;2.60;;;;;;;;;;5029308;28;20056;-70
2021/08/21 07:54:40;;;;;;;5.68;2.20;;;;;;;;;;5031596;28;20065;-69
2021/08/21 07:57:07;;;;;;;15.30;13.55;;;;;;;;;;5009736;28;20531;-71
2021/08/21 07:59:34;;;;;;;5.82;3.10;;;;;;;;;;5028567;28;20041;-71
2021/08/21 08:02:02;;;;;;;22.05;14.48;;;;;;;;;;5027734;28;20490;-70
2021/08/21 08:04:29;;;;;;;24.73;11.15;;;;;;;;;;5024337;28;20041;-70
2021/08/21 08:06:56;;;;;;;24.58;12.98;;;;;;;;;;5028629;28;20045;-70
2021/08/21 08:09:23;;;;;;;10.70;6.35;;;;;;;;;;5027641;28;20041;-70
2021/08/21 08:11:50;;;;;;;15.65;8.63;;;;;;;;;;5028186;28;20030;-71
2021/08/21 08:14:17;;;;;;;7.35;3.78;;;;;;;;;;5029017;28;20518;-69
2021/08/21 08:16:44;;;;;;;17.23;10.95;;;;;;;;;;5011184;28;20049;-69
2021/08/21 08:19:11;;;;;;;13.50;10.57;;;;;;;;;;5025905;28;20038;-70
2021/08/21 08:21:39;;;;;;;13.48;9.85;;;;;;;;;;5031385;28;20548;-69
2021/08/21 08:24:06;;;;;;;12.90;6.22;;;;;;;;;;5013395;28;20046;-70
2021/08/21 08:26:33;;;;;;;12.45;7.13;;;;;;;;;;5031470;28;20041;-71
2021/08/21 08:29:00;;;;;;;13.30;6.75;;;;;;;;;;5031509;28;20069;-70
2021/08/21 08:31:27;;;;;;;15.38;8.10;;;;;;;;;;5011962;28;20121;-72
2021/08/21 08:33:55;;;;;;;8.65;5.13;;;;;;;;;;5012361;28;20041;-69
2021/08/21 08:36:22;;;;;;;8.07;4.80;;;;;;;;;;5031253;28;20119;-70
2021/08/21 08:38:49;;;;;;;9.15;4.75;;;;;;;;;;5031094;28;20033;-69
2021/08/21 08:41:20;;;;;;;7.75;4.50;;;;;;;;;;5031239;28;20033;-70
2021/08/21 08:43:47;;;;;;;7.22;4.65;;;;;;;;;;5031209;28;20030;-71
2021/08/21 08:46:15;;;;;;;11.05;5.60;;;;;;;;;;5031051;28;20041;-70
2021/08/21 08:48:42;;;;;;;17.08;6.97;;;;;;;;;;5017038;28;20132;-69
2021/08/21 08:51:09;;;;;;;13.30;7.30;;;;;;;;;;5037775;28;20405;-68
2021/08/21 08:53:36;;;;;;;16.50;7.32;;;;;;;;;;5031652;28;20117;-70
2021/08/21 08:56:04;;;;;;;12.15;5.10;;;;;;;;;;5030811;28;20114;-71
2021/08/21 08:58:31;;;;;;;10.40;5.03;;;;;;;;;;5030152;28;20037;-70
2021/08/21 09:00:59;;;;;;;9.57;3.90;;;;;;;;;;5031389;28;20036;-70
2021/08/21 09:03:27;;;;;;;7.82;4.85;;;;;;;;;;5019310;28;20068;-70
2021/08/21 09:05:55;;;;;;;8.25;4.88;;;;;;;;;;5036792;28;20036;-70
2021/08/21 09:08:22;;;;;;;10.93;5.53;;;;;;;;;;5030598;28;20049;-70
2021/08/21 09:10:50;;;;;;;13.60;8.73;;;;;;;;;;5030169;28;20029;-70
2021/08/21 09:13:19;;;;;;;12.30;8.35;;;;;;;;;;5031057;28;20056;-69
2021/08/21 09:15:47;;;;;;;14.07;9.02;;;;;;;;;;5046567;28;20021;-70
2021/08/21 09:18:25;;;;;;;12.35;8.60;;;;;;;;;;5032740;28;20062;-69
2021/08/21 09:21:02;;;;;;;10.05;6.68;;;;;;;;;;5013485;28;20125;-69
2021/08/21 09:23:29;;;;;;;10.93;6.95;;;;;;;;;;5031283;28;20034;-70
2021/08/21 09:26:04;;;;;;;9.07;5.07;;;;;;;;;;5025507;28;20030;-70
2021/08/21 09:28:31;;;;;;;34.42;23.42;;;;;;;;;;5029206;28;20405;-70
2021/08/21 09:31:02;;;;;;;22.08;15.38;;;;;;;;;;5031178;28;20098;-70
2021/08/21 09:33:30;;;;;;;15.35;10.77;;;;;;;;;;5030891;28;20490;-70
2021/08/21 09:35:58;;;;;;;10.73;8.15;;;;;;;;;;5024392;28;20116;-70
2021/08/21 09:38:33;;;;;;;12.00;7.88;;;;;;;;;;5033863;28;20037;-69
2021/08/21 09:41:08;;;;;;;9.18;5.15;;;;;;;;;;5015985;28;20513;-69
2021/08/21 09:43:37;;;;;;;11.32;6.85;;;;;;;;;;5034894;28;20478;-69
2021/08/21 09:46:10;;;;;;;13.23;7.47;;;;;;;;;;5052260;28;20029;-69
2021/08/21 09:48:57;;;;;;;11.82;8.82;;;;;;;;;;5034693;28;20057;-71
2021/08/21 09:51:31;;;;;;;12.75;8.15;;;;;;;;;;5015571;28;20110;-70
2021/08/21 09:54:02;;;;;;;13.27;6.88;;;;;;;;;;5036110;28;20613;-69
2021/08/21 09:56:36;;;;;;;24.63;17.95;;;;;;;;;;5048024;28;20068;-70
2021/08/21 09:59:03;;;;;;;;;;;;;;;;;;5034622;28;20498;-70
2021/08/21 10:01:30;;;;;;;19.45;15.00;;;;;;;;;;5029061;28;19913;-69
2021/08/21 10:03:58;;;;;;;19.48;12.55;;;;;;;;;;5015985;28;20444;-69
2021/08/21 10:06:26;;;;;;;18.77;13.50;;;;;;;;;;5033511;28;20104;-70
2021/08/21 10:09:12;;;;;;;14.40;10.45;;;;;;;;;;5023209;28;20079;-68
2021/08/21 10:11:39;;;;;;;10.27;6.68;;;;;;;;;;5033578;28;20041;-69
2021/08/21 10:14:07;;;;;;;11.10;7.50;;;;;;;;;;5033288;28;20038;-69
2021/08/21 10:16:37;;;;;;;8.95;7.10;;;;;;;;;;5042848;28;20170;-69
2021/08/21 10:19:04;;;;;;;11.13;6.47;;;;;;;;;;5034299;28;20482;-69
2021/08/21 10:21:32;;;;;;;7.85;5.40;;;;;;;;;;5031741;28;20033;-69
2021/08/21 10:23:59;;;;;;;13.32;6.40;;;;;;;;;;5033138;28;20033;-69
2021/08/21 10:26:39;;;;;;;12.38;6.20;;;;;;;;;;5033575;28;20057;-68
2021/08/21 10:29:11;;;;;;;12.48;6.13;;;;;;;;;;5034317;28;20379;-68
2021/08/21 10:31:39;;;;;;;9.02;6.20;;;;;;;;;;5030503;28;20398;-69
2021/08/21 10:34:08;;;;;;;17.10;11.23;;;;;;;;;;4995531;28;20081;-69
2021/08/21 10:36:41;;;;;;;19.55;11.98;;;;;;;;;;5012261;28;20033;-69
2021/08/21 10:39:16;;;;;;;14.02;8.98;;;;;;;;;;5011041;28;20040;-69
2021/08/21 10:41:43;;;;;;;11.98;7.50;;;;;;;;;;5013818;28;20030;-69
2021/08/21 10:44:10;;;;;;;13.95;8.35;;;;;;;;;;5013826;28;20092;-69
2021/08/21 10:46:37;;;;;;;17.15;9.02;;;;;;;;;;4996648;28;20399;-69
2021/08/21 10:49:08;;;;;;;17.98;9.38;;;;;;;;;;5012774;28;20093;-70
2021/08/21 10:51:35;;;;;;;24.08;17.02;;;;;;;;;;5011623;28;20034;-70
2021/08/21 10:54:22;;;;;;;20.35;13.85;;;;;;;;;;5022336;28;20033;-70
2021/08/21 10:56:49;;;;;;;21.52;13.57;;;;;;;;;;4992268;28;20046;-70
2021/08/21 10:59:36;;;;;;;17.42;11.52;;;;;;;;;;5013867;28;20041;-70
2021/08/21 11:02:21;;;;;;;14.27;10.90;;;;;;;;;;5014280;28;20100;-71
2021/08/21 11:04:48;;;;;;;13.02;8.95;;;;;;;;;;5014513;28;20053;-69
2021/08/21 11:07:31;;;;;;;13.45;7.10;;;;;;;;;;5014098;28;20034;-71
2021/08/21 11:10:16;;;;;;;13.65;7.10;;;;;;;;;;5013483;28;20096;-70
2021/08/21 11:12:46;;;;;;;15.30;9.13;;;;;;;;;;5012438;28;20124;-70
2021/08/21 11:15:16;;;;;;;24.73;18.42;;;;;;;;;;5007000;28;20038;-71
2021/08/21 11:17:44;;;;;;;68.70;49.90;;;;;;;;;;5012196;28;20487;-71
2021/08/21 11:20:28;;;;;;;102.03;77.85;;;;;;;;;;5012152;28;20042;-69
2021/08/21 11:23:07;;;;;;;101.15;77.25;;;;;;;;;;5012164;28;20092;-71
2021/08/21 11:25:34;;;;;;;97.60;72.78;;;;;;;;;;5012405;28;20108;-71
2021/08/21 11:28:05;;;;;;;101.03;75.68;;;;;;;;;;5011029;28;20053;-71
2021/08/21 11:30:33;;;;;;;90.30;68.95;;;;;;;;;;5011111;28;20109;-70
2021/08/21 11:33:03;;;;;;;85.03;64.05;;;;;;;;;;4995616;28;20053;-70
2021/08/21 11:35:37;;;;;;;66.75;54.42;;;;;;;;;;5014096;28;20026;-70
2021/08/21 11:38:09;;;;;;;91.07;69.90;;;;;;;;;;5020100;28;20530;-72
2021/08/21 11:40:49;;;;;;;127.35;97.95;;;;;;;;;;5022119;28;20044;-71
2021/08/21 11:43:18;;;;;;;136.23;103.95;;;;;;;;;;5032006;28;20084;-71
2021/08/21 11:45:45;;;;;;;120.53;94.70;;;;;;;;;;5015692;28;20061;-71
2021/08/21 11:48:12;;;;;;;126.15;100.55;;;;;;;;;;5010908;28;20121;-71
2021/08/21 11:50:44;;;;;;;130.63;103.22;;;;;;;;;;5010823;28;20055;-71
2021/08/21 11:53:16;;;;;;;142.02;111.40;;;;;;;;;;5012435;28;20057;-70
2021/08/21 11:55:44;;;;;;;149.32;118.88;;;;;;;;;;4996158;28;20069;-71
2021/08/21 11:58:11;;;;;;;156.27;122.82;;;;;;;;;;5020022;28;20054;-70
2021/08/21 12:00:41;;;;;;;187.32;153.27;;;;;;;;;;5011913;28;20026;-69
2021/08/21 12:03:10;;;;;;;204.00;170.00;;;;;;;;;;5024468;28;20033;-69
2021/08/21 12:05:46;;;;;;;207.38;163.93;;;;;;;;;;5011321;28;20026;-70
2021/08/21 12:08:39;;;;;;;207.80;166.98;;;;;;;;;;4991105;28;20037;-71
2021/08/21 12:11:07;;;;;;;203.20;161.45;;;;;;;;;;5001930;28;20387;-70
2021/08/21 12:13:35;;;;;;;197.90;152.27;;;;;;;;;;4993162;28;20046;-69
2021/08/21 12:16:12;;;;;;;179.85;138.30;;;;;;;;;;5007024;28;20528;-70
2021/08/21 12:18:40;;;;;;;172.02;129.82;;;;;;;;;;5010584;28;20133;-70
2021/08/21 12:21:08;;;;;;;168.23;128.60;;;;;;;;;;5014319;28;20052;-70
2021/08/21 12:23:43;;;;;;;172.60;130.98;;;;;;;;;;5012409;28;20037;-70
2021/08/21 12:26:10;;;;;;;167.40;126.25;;;;;;;;;;4993210;28;20111;-70
2021/08/21 12:28:39;;;;;;;159.30;122.60;;;;;;;;;;4997700;28;20089;-70
2021/08/21 12:31:13;;;;;;;145.05;112.82;;;;;;;;;;5006118;28;20030;-70
2021/08/21 12:33:42;;;;;;;142.95;108.50;;;;;;;;;;5038480;28;20566;-69
2021/08/21 12:36:14;;;;;;;137.27;107.50;;;;;;;;;;5030861;28;20037;-69
2021/08/21 12:38:42;;;;;;;137.90;105.45;;;;;;;;;;5045881;28;20044;-70
2021/08/21 12:41:17;;;;;;;157.02;121.68;;;;;;;;;;5034434;28;20105;-69
2021/08/21 12:43:44;;;;;;;161.82;123.38;;;;;;;;;;5028960;28;20038;-69
2021/08/21 12:46:21;;;;;;;158.35;125.10;;;;;;;;;;5030514;28;20037;-70
2021/08/21 12:48:48;;;;;;;150.35;121.38;;;;;;;;;;5030724;28;20040;-68
2021/08/21 12:51:34;;;;;;;151.77;119.63;;;;;;;;;;5031179;28;20037;-69
2021/08/21 12:54:05;;;;;;;151.82;117.60;;;;;;;;;;5012552;28;20486;-69
2021/08/21 12:56:32;;;;;;;140.93;111.05;;;;;;;;;;5030793;28;20088;-70
2021/08/21 12:59:09;;;;;;;139.52;109.30;;;;;;;;;;5030588;28;20072;-70
2021/08/21 13:01:36;;;;;;;132.38;103.53;;;;;;;;;;5030690;28;20037;-70
2021/08/21 13:04:07;;;;;;;135.10;104.30;;;;;;;;;;5031729;28;20041;-70
2021/08/21 13:06:34;;;;;;;127.53;98.22;;;;;;;;;;5030531;28;20037;-70
2021/08/21 13:09:01;;;;;;;122.45;94.40;;;;;;;;;;5028776;28;20418;-70
2021/08/21 13:11:29;;;;;;;119.70;96.00;;;;;;;;;;5032160;28;20045;-69
2021/08/21 13:13:56;;;;;;;120.95;94.57;;;;;;;;;;5034222;28;20504;-69
2021/08/21 13:16:23;;;;;;;126.10;95.60;;;;;;;;;;5035112;28;20076;-69
2021/08/21 13:18:53;;;;;;;121.30;93.38;;;;;;;;;;5021563;28;20021;-70
2021/08/21 13:21:21;;;;;;;118.28;91.07;;;;;;;;;;5024031;28;20401;-69
2021/08/21 13:23:48;;;;;;;121.70;91.15;;;;;;;;;;5036259;28;20057;-70
2021/08/21 13:26:15;;;;;;;112.72;87.70;;;;;;;;;;5034314;28;20036;-70
2021/08/21 13:28:42;;;;;;;100.53;76.72;;;;;;;;;;5040566;28;20041;-70
2021/08/21 13:31:09;;;;;;;93.68;73.50;;;;;;;;;;5034529;28;20029;-69
2021/08/21 13:33:36;;;;;;;93.43;73.25;;;;;;;;;;5019904;28;20041;-69
2021/08/21 13:36:04;;;;;;;92.70;70.18;;;;;;;;;;5024573;28;20160;-70
2021/08/21 13:38:31;;;;;;;86.13;64.68;;;;;;;;;;5016807;28;20034;-69
2021/08/21 13:40:58;;;;;;;89.90;68.03;;;;;;;;;;5014195;28;20497;-69
2021/08/21 13:43:25;;;;;;;89.80;65.25;;;;;;;;;;5019150;28;20042;-70
2021/08/21 13:45:52;;;;;;;91.97;68.25;;;;;;;;;;5013413;28;20106;-70
2021/08/21 13:48:19;;;;;;;95.05;69.20;;;;;;;;;;5001060;28;20037;-70
2021/08/21 13:50:47;;;;;;;94.15;70.38;;;;;;;;;;5014719;28;20026;-70
2021/08/21 13:53:14;;;;;;;90.47;69.22;;;;;;;;;;5014233;28;20030;-70
2021/08/21 13:55:41;;;;;;;99.43;75.50;;;;;;;;;;4996427;28;20038;-70
2021/08/21 13:58:10;;;;;;;130.15;97.43;;;;;;;;;;5023858;28;20044;-69
2021/08/21 14:00:37;;;;;;;130.93;96.30;;;;;;;;;;5028896;28;20439;-69
2021/08/21 14:03:05;;;;;;;125.95;95.78;;;;;;;;;;5028825;28;20038;-69
2021/08/21 14:05:34;;;;;;;130.05;96.43;;;;;;;;;;5022318;28;20033;-69
2021/08/21 14:08:03;;;;;;;128.57;98.38;;;;;;;;;;4991412;28;20501;-70
2021/08/21 14:10:30;;;;;;;127.03;100.53;;;;;;;;;;5014184;28;20390;-70
2021/08/21 14:12:57;;;;;;;145.95;106.38;;;;;;;;;;5013525;28;20025;-69
2021/08/21 14:15:25;;;;;;;163.63;123.38;;;;;;;;;;5020819;28;20030;-69
2021/08/21 14:17:52;;;;;;;179.73;134.25;;;;;;;;;;5022693;28;20483;-69
2021/08/21 14:20:19;;;;;;;174.20;127.53;;;;;;;;;;5006415;28;20069;-69
2021/08/21 14:22:46;;;;;;;147.88;111.03;;;;;;;;;;5012449;28;20415;-69
2021/08/21 14:25:13;;;;;;;145.30;105.93;;;;;;;;;;5013902;28;20030;-69
2021/08/21 14:27:40;;;;;;;120.30;91.03;;;;;;;;;;5014297;28;20076;-69
2021/08/21 14:30:09;;;;;;;116.47;87.20;;;;;;;;;;5013650;28;20137;-69